createdAt,value
2023-07-16T00:01:56.317Z,18.65
2023-07-16T00:04:23.166Z,18.66
2023-07-16T00:06:49.872Z,18.65
2023-07-16T00:09:16.637Z,18.65
2023-07-16T00:11:43.245Z,18.63
2023-07-16T00:14:12.595Z,18.63
2023-07-16T00:16:42.844Z,18.65
2023-07-16T00:19:12.514Z,18.66
2023-07-16T00:21:39.814Z,18.68
2023-07-16T00:24:06.601Z,18.65
2023-07-16T00:26:33.362Z,18.63
2023-07-16T00:29:00.007Z,18.65
2023-07-16T00:31:26.574Z,18.67
2023-07-16T00:33:53.216Z,18.67
2023-07-16T00:36:19.856Z,18.65
2023-07-16T00:38:47.001Z,18.66
2023-07-16T00:41:15.686Z,18.67
2023-07-16T00:43:42.461Z,18.65
2023-07-16T00:46:09.910Z,18.66
2023-07-16T00:48:36.769Z,18.68
2023-07-16T00:51:05.301Z,18.65
2023-07-16T00:53:32.789Z,18.64
2023-07-16T00:55:59.834Z,18.64
2023-07-16T00:58:26.917Z,18.60
2023-07-16T01:00:53.840Z,18.59
2023-07-16T01:03:20.594Z,18.58
2023-07-16T01:06:09.328Z,18.57
2023-07-16T01:08:44.003Z,18.56
2023-07-16T01:11:11.167Z,18.50
2023-07-16T01:13:38.251Z,18.45
2023-07-16T01:16:05.259Z,18.41
2023-07-16T01:18:31.940Z,18.41
2023-07-16T01:20:58.826Z,18.45
2023-07-16T01:23:40.784Z,18.48
2023-07-16T01:26:16.719Z,18.51
2023-07-16T01:28:55.693Z,18.51
2023-07-16T01:31:23.580Z,18.50
2023-07-16T01:33:52.146Z,18.44
2023-07-16T01:36:20.606Z,18.42
2023-07-16T01:38:47.546Z,18.43
2023-07-16T01:41:14.521Z,18.42
2023-07-16T01:43:41.062Z,18.41
2023-07-16T01:46:07.817Z,18.39
2023-07-16T01:48:36.656Z,18.40
2023-07-16T01:51:04.400Z,18.38
2023-07-16T01:53:34.337Z,18.36
2023-07-16T01:56:03.221Z,18.31
2023-07-16T01:58:29.941Z,18.28
2023-07-16T02:00:56.640Z,18.25
2023-07-16T02:03:27.287Z,18.22
2023-07-16T02:05:54.016Z,18.21
2023-07-16T02:08:20.617Z,18.23
2023-07-16T02:10:49.717Z,18.22
2023-07-16T02:13:20.211Z,18.17
2023-07-16T02:15:49.251Z,18.18
2023-07-16T02:18:15.939Z,18.21
2023-07-16T02:20:44.212Z,18.19
2023-07-16T02:23:11.035Z,18.18
2023-07-16T02:25:37.685Z,18.20
2023-07-16T02:28:04.420Z,18.22
2023-07-16T02:30:31.059Z,18.22
2023-07-16T02:32:57.783Z,18.20
2023-07-16T02:35:25.874Z,18.17
2023-07-16T02:37:52.614Z,18.18
2023-07-16T02:40:24.470Z,18.14
2023-07-16T02:42:51.369Z,18.17
2023-07-16T02:45:18.149Z,18.18
2023-07-16T02:47:47.250Z,18.19
2023-07-16T02:50:13.930Z,18.18
2023-07-16T02:52:40.717Z,18.19
2023-07-16T02:55:07.716Z,18.17
2023-07-16T02:57:34.448Z,18.17
2023-07-16T03:00:01.033Z,18.16
2023-07-16T03:02:49.186Z,18.16
2023-07-16T03:05:21.805Z,18.09
2023-07-16T03:07:48.582Z,18.07
2023-07-16T03:10:15.280Z,18.10
2023-07-16T03:12:42.106Z,18.15
2023-07-16T03:15:09.438Z,18.14
2023-07-16T03:17:36.209Z,18.14
2023-07-16T03:20:05.473Z,18.11
2023-07-16T03:22:32.524Z,18.09
2023-07-16T03:24:59.217Z,18.05
2023-07-16T03:27:25.847Z,18.00
2023-07-16T03:29:52.620Z,18.00
2023-07-16T03:32:19.442Z,17.99
2023-07-16T03:34:46.095Z,17.99
2023-07-16T03:37:12.713Z,17.99
2023-07-16T03:39:39.558Z,17.97
2023-07-16T03:42:09.262Z,18.00
2023-07-16T03:44:35.909Z,17.96
2023-07-16T03:47:02.570Z,17.98
2023-07-16T03:49:32.317Z,17.97
2023-07-16T03:51:58.885Z,17.99
2023-07-16T03:54:25.528Z,18.02
2023-07-16T03:56:52.317Z,18.02
2023-07-16T03:59:18.955Z,18.00
2023-07-16T04:01:46.758Z,17.99
2023-07-16T04:04:13.442Z,17.94
2023-07-16T04:06:40.077Z,17.91
2023-07-16T04:09:11.027Z,17.88
2023-07-16T04:11:37.651Z,17.87
2023-07-16T04:14:04.306Z,17.85
2023-07-16T04:16:31.042Z,17.84
2023-07-16T04:19:00.272Z,17.84
2023-07-16T04:21:26.885Z,17.85
2023-07-16T04:23:53.471Z,17.82
2023-07-16T04:26:20.023Z,17.84
2023-07-16T04:28:46.676Z,17.86
2023-07-16T04:31:13.407Z,17.85
2023-07-16T04:33:40.505Z,17.82
2023-07-16T04:36:08.610Z,17.85
2023-07-16T04:38:35.323Z,17.87
2023-07-16T04:41:02.017Z,17.87
2023-07-16T04:43:28.681Z,17.88
2023-07-16T04:46:02.052Z,17.90
2023-07-16T04:48:28.734Z,17.88
2023-07-16T04:50:58.010Z,17.92
2023-07-16T04:53:25.234Z,17.93
2023-07-16T04:55:51.962Z,17.94
2023-07-16T04:58:18.559Z,17.99
2023-07-16T05:00:45.315Z,18.02
2023-07-16T05:03:12.011Z,18.05
2023-07-16T05:05:38.651Z,18.03
2023-07-16T05:08:06.854Z,18.01
2023-07-16T05:10:34.711Z,18.03
2023-07-16T05:13:01.307Z,18.07
2023-07-16T05:15:27.977Z,18.14
2023-07-16T05:17:55.759Z,18.16
2023-07-16T05:20:22.504Z,18.19
2023-07-16T05:22:49.140Z,18.22
2023-07-16T05:25:18.339Z,18.25
2023-07-16T05:27:44.980Z,18.25
2023-07-16T05:30:13.673Z,18.25
2023-07-16T05:32:41.548Z,18.28
2023-07-16T05:35:08.626Z,18.33
2023-07-16T05:37:35.369Z,18.38
2023-07-16T05:40:02.087Z,18.42
2023-07-16T05:42:28.892Z,18.41
2023-07-16T05:44:55.725Z,18.45
2023-07-16T05:47:22.677Z,18.50
2023-07-16T05:49:51.664Z,18.56
2023-07-16T05:52:18.719Z,18.64
2023-07-16T05:54:46.219Z,18.61
2023-07-16T05:57:13.164Z,18.71
2023-07-16T05:59:40.142Z,18.77
2023-07-16T06:02:18.450Z,18.97
2023-07-16T06:04:45.681Z,19.06
2023-07-16T06:07:13.986Z,19.14
2023-07-16T06:09:40.660Z,19.25
2023-07-16T06:12:07.336Z,19.36
2023-07-16T06:14:33.927Z,19.42
2023-07-16T06:17:00.667Z,19.48
2023-07-16T06:19:27.362Z,19.52
2023-07-16T06:21:53.950Z,19.54
2023-07-16T06:24:24.215Z,19.75
2023-07-16T06:26:50.805Z,19.84
2023-07-16T06:29:17.410Z,19.96
2023-07-16T06:31:45.784Z,19.99
2023-07-16T06:34:12.419Z,20.05
2023-07-16T06:36:39.372Z,20.22
2023-07-16T06:39:30.992Z,20.27
2023-07-16T06:41:57.608Z,20.36
2023-07-16T06:44:24.871Z,20.40
2023-07-16T06:46:52.204Z,20.60
2023-07-16T06:49:24.432Z,20.74
2023-07-16T06:51:51.111Z,20.88
2023-07-16T06:54:18.840Z,20.84
2023-07-16T06:56:46.837Z,20.97
2023-07-16T06:59:17.085Z,21.04
2023-07-16T07:01:44.039Z,21.12
2023-07-16T07:04:18.349Z,21.18
2023-07-16T07:06:47.018Z,21.05
2023-07-16T07:09:13.781Z,21.13
2023-07-16T07:11:42.820Z,21.22
2023-07-16T07:14:12.117Z,21.30
2023-07-16T07:16:44.835Z,21.25
2023-07-16T07:19:11.621Z,21.25
2023-07-16T07:21:38.397Z,21.02
2023-07-16T07:24:11.361Z,20.77
2023-07-16T07:26:43.472Z,20.63
2023-07-16T07:29:11.825Z,20.56
2023-07-16T07:31:39.356Z,20.82
2023-07-16T07:34:07.919Z,20.93
2023-07-16T07:36:36.985Z,20.92
2023-07-16T07:42:02.758Z,20.78
2023-07-16T07:44:29.445Z,20.67
2023-07-16T07:46:57.006Z,20.68
2023-07-16T07:49:23.992Z,20.84
2023-07-16T07:51:50.642Z,20.87
2023-07-16T07:54:17.555Z,20.75
2023-07-16T07:56:46.914Z,20.64
2023-07-16T07:59:13.606Z,20.62
2023-07-16T08:01:40.226Z,20.60
2023-07-16T08:04:06.980Z,20.43
2023-07-16T08:06:33.841Z,20.34
2023-07-16T08:09:00.550Z,20.39
2023-07-16T08:11:27.138Z,20.52
2023-07-16T08:13:54.790Z,20.58
2023-07-16T08:16:21.430Z,20.57
2023-07-16T08:18:48.102Z,20.57
2023-07-16T08:21:20.836Z,20.60
2023-07-16T08:23:50.381Z,20.59
2023-07-16T08:26:18.247Z,20.70
2023-07-16T08:28:45.541Z,20.83
2023-07-16T08:31:13.900Z,20.90
2023-07-16T08:33:41.096Z,21.05
2023-07-16T08:36:07.713Z,21.09
2023-07-16T08:38:34.479Z,21.02
2023-07-16T08:41:03.105Z,20.96
2023-07-16T08:43:30.514Z,20.97
2023-07-16T08:45:57.510Z,21.00
2023-07-16T08:48:24.501Z,20.92
2023-07-16T08:50:51.284Z,20.92
2023-07-16T08:53:18.521Z,20.96
2023-07-16T08:55:45.877Z,20.91
2023-07-16T08:58:16.357Z,20.96
2023-07-16T09:00:45.105Z,21.07
2023-07-16T09:03:14.848Z,21.11
2023-07-16T09:05:41.813Z,21.10
2023-07-16T09:08:09.862Z,21.06
2023-07-16T09:10:36.896Z,21.23
2023-07-16T09:13:03.724Z,21.10
2023-07-16T09:15:31.157Z,21.06
2023-07-16T09:17:58.050Z,21.11
2023-07-16T09:20:26.136Z,21.19
2023-07-16T09:22:56.555Z,21.17
2023-07-16T09:25:27.946Z,21.18
2023-07-16T09:27:54.816Z,21.11
2023-07-16T09:30:21.611Z,20.98
2023-07-16T09:32:48.311Z,21.00
2023-07-16T09:35:17.062Z,21.06
2023-07-16T09:37:44.580Z,21.27
2023-07-16T09:40:12.779Z,21.46
2023-07-16T09:42:41.338Z,21.51
2023-07-16T09:45:09.429Z,21.45
2023-07-16T09:47:36.382Z,21.40
2023-07-16T09:50:05.847Z,21.26
2023-07-16T09:52:34.268Z,21.11
2023-07-16T09:55:03.754Z,21.16
2023-07-16T09:57:36.334Z,21.24
2023-07-16T10:00:07.050Z,21.27
2023-07-16T10:02:36.568Z,21.19
2023-07-16T10:05:14.085Z,21.20
2023-07-16T10:07:41.228Z,21.18
2023-07-16T10:10:10.399Z,21.19
2023-07-16T10:12:38.581Z,21.35
2023-07-16T10:15:06.929Z,21.49
2023-07-16T10:17:34.656Z,21.65
2023-07-16T10:20:09.047Z,21.73
2023-07-16T10:22:44.347Z,21.98
2023-07-16T10:25:27.959Z,21.98
2023-07-16T10:27:55.231Z,21.74
2023-07-16T10:30:22.354Z,21.47
2023-07-16T10:32:51.655Z,21.29
2023-07-16T10:35:18.345Z,21.23
2023-07-16T10:37:44.989Z,21.18
2023-07-16T10:40:15.499Z,21.07
2023-07-16T10:42:44.925Z,21.14
2023-07-16T10:45:11.669Z,21.29
2023-07-16T10:47:40.890Z,21.48
2023-07-16T10:50:11.014Z,21.81
2023-07-16T10:52:39.623Z,22.03
2023-07-16T10:55:06.619Z,22.05
2023-07-16T10:57:33.343Z,22.15
2023-07-16T11:00:01.373Z,22.35
2023-07-16T11:02:29.537Z,22.46
2023-07-16T11:04:59.485Z,22.35
2023-07-16T11:07:27.575Z,22.42
2023-07-16T11:09:55.787Z,22.48
2023-07-16T11:12:24.115Z,22.79
2023-07-16T11:14:56.465Z,22.75
2023-07-16T11:17:25.776Z,22.71
2023-07-16T11:19:53.856Z,22.57
2023-07-16T11:22:20.670Z,22.28
2023-07-16T11:24:49.142Z,22.04
2023-07-16T11:27:17.763Z,21.84
2023-07-16T11:29:50.462Z,21.90
2023-07-16T11:32:36.559Z,22.16
2023-07-16T11:35:05.330Z,22.05
2023-07-16T11:37:33.569Z,22.10
2023-07-16T11:40:04.609Z,22.12
2023-07-16T11:42:35.138Z,22.47
2023-07-16T11:45:03.530Z,22.73
2023-07-16T11:47:30.768Z,22.69
2023-07-16T11:49:58.547Z,22.69
2023-07-16T11:52:28.235Z,22.68
2023-07-16T11:54:57.785Z,22.92
2023-07-16T11:57:24.546Z,22.93
2023-07-16T11:59:51.156Z,22.91
2023-07-16T12:02:17.951Z,22.86
2023-07-16T12:04:44.645Z,22.75
2023-07-16T12:07:11.427Z,22.62
2023-07-16T12:09:38.061Z,22.50
2023-07-16T12:12:05.503Z,22.53
2023-07-16T12:14:32.728Z,22.88
2023-07-16T12:16:59.585Z,23.24
2023-07-16T12:19:26.386Z,23.29
2023-07-16T12:21:54.447Z,23.30
2023-07-16T12:24:21.342Z,23.34
2023-07-16T12:26:47.900Z,23.37
2023-07-16T12:29:14.582Z,23.53
2023-07-16T12:31:41.185Z,23.67
2023-07-16T12:34:07.866Z,23.76
2023-07-16T12:36:34.500Z,23.70
2023-07-16T12:39:01.514Z,23.80
2023-07-16T12:49:47.543Z,24.26
2023-07-16T12:52:14.235Z,24.28
2023-07-16T13:04:23.139Z,23.60
2023-07-16T13:13:04.434Z,23.50
2023-07-16T13:18:49.045Z,23.16
2023-07-16T13:21:15.674Z,23.18
2023-07-16T13:27:15.177Z,23.36
2023-07-16T13:32:31.226Z,23.29
2023-07-16T13:35:11.432Z,23.25
2023-07-16T13:38:11.028Z,23.11
2023-07-16T13:40:48.127Z,23.00
2023-07-16T13:43:20.788Z,22.95
2023-07-16T13:45:50.541Z,22.90
2023-07-16T13:51:07.582Z,23.00
2023-07-16T13:59:51.816Z,23.31
2023-07-16T14:02:48.905Z,23.23
2023-07-16T14:05:24.477Z,23.19
2023-07-16T14:13:54.327Z,23.32
2023-07-16T14:21:54.391Z,23.48
2023-07-16T14:24:27.052Z,23.41
2023-07-16T14:36:21.244Z,23.34
2023-07-16T14:38:50.417Z,23.33
2023-07-16T14:41:20.178Z,23.38
2023-07-16T14:50:11.153Z,23.37
2023-07-16T14:53:04.986Z,23.41
2023-07-16T14:56:03.396Z,23.50
2023-07-16T14:58:39.581Z,23.43
2023-07-16T15:01:09.567Z,23.45
2023-07-16T15:12:02.301Z,23.14
2023-07-16T15:14:30.585Z,23.06
2023-07-16T15:19:48.236Z,23.13
2023-07-16T15:25:37.171Z,23.02
2023-07-16T15:35:32.471Z,23.17
2023-07-16T15:53:02.317Z,23.20
2023-07-16T15:55:33.903Z,23.28
2023-07-16T16:07:20.004Z,23.37
2023-07-16T16:19:30.453Z,23.29
2023-07-16T16:26:19.613Z,23.17
2023-07-16T16:28:50.996Z,23.13
2023-07-16T16:31:45.958Z,23.12
2023-07-16T16:47:19.097Z,23.04
2023-07-16T16:55:19.279Z,23.11
2023-07-16T17:12:50.943Z,22.99
2023-07-16T17:15:41.391Z,23.07
2023-07-16T17:18:10.001Z,23.03
2023-07-16T17:20:36.989Z,23.02
2023-07-16T17:23:42.558Z,22.97
2023-07-16T17:26:09.311Z,23.05
2023-07-16T17:28:39.005Z,23.05
2023-07-16T17:33:50.368Z,22.95
2023-07-16T17:36:17.010Z,22.90
2023-07-16T17:38:43.808Z,22.94
2023-07-16T17:41:10.486Z,22.94
2023-07-16T17:43:37.113Z,22.91
2023-07-16T17:46:03.861Z,22.90
2023-07-16T17:48:33.466Z,22.90
2023-07-16T17:51:00.760Z,22.92
2023-07-16T17:53:27.474Z,22.89
2023-07-16T17:55:57.209Z,22.85
2023-07-16T17:58:23.775Z,22.72
2023-07-16T18:00:56.921Z,22.64
2023-07-16T18:03:23.888Z,22.53
2023-07-16T18:05:51.297Z,22.43
2023-07-16T18:08:19.622Z,22.38
2023-07-16T18:10:48.285Z,22.35
2023-07-16T18:13:15.410Z,22.34
2023-07-16T18:15:42.070Z,22.31
2023-07-16T18:18:09.170Z,22.31
2023-07-16T18:20:36.141Z,22.31
2023-07-16T18:23:03.962Z,22.28
2023-07-16T18:25:30.657Z,22.20
2023-07-16T18:27:59.450Z,22.15
2023-07-16T18:30:26.228Z,22.11
2023-07-16T18:32:52.895Z,22.07
2023-07-16T18:35:25.320Z,22.03
2023-07-16T18:37:51.939Z,22.06
2023-07-16T18:40:18.482Z,22.06
2023-07-16T18:42:46.992Z,22.01
2023-07-16T18:45:13.697Z,21.99
2023-07-16T18:47:40.319Z,21.97
2023-07-16T18:50:10.379Z,21.94
2023-07-16T18:52:37.162Z,21.94
2023-07-16T18:55:04.773Z,21.90
2023-07-16T18:57:31.611Z,21.87
2023-07-16T18:59:59.206Z,21.85
2023-07-16T19:02:26.303Z,21.81
2023-07-16T19:04:53.111Z,21.74
2023-07-16T19:07:19.874Z,21.71
2023-07-16T19:09:46.503Z,21.67
2023-07-16T19:12:13.332Z,21.58
2023-07-16T19:14:39.945Z,21.54
2023-07-16T19:17:14.111Z,21.51
2023-07-16T19:19:40.799Z,21.49
2023-07-16T19:22:08.118Z,21.47
2023-07-16T19:24:34.926Z,21.45
2023-07-16T19:27:03.126Z,21.42
2023-07-16T19:29:29.895Z,21.43
2023-07-16T19:31:56.575Z,21.37
2023-07-16T19:34:23.381Z,21.32
2023-07-16T19:36:50.111Z,21.32
2023-07-16T19:39:16.723Z,21.30
2023-07-16T19:41:43.407Z,21.27
2023-07-16T19:44:10.615Z,21.26
2023-07-16T19:46:37.281Z,21.24
2023-07-16T19:49:05.168Z,21.23
2023-07-16T19:51:31.988Z,21.18
2023-07-16T19:53:59.909Z,21.19
2023-07-16T19:56:26.584Z,21.15
2023-07-16T19:58:54.253Z,21.06
2023-07-16T20:01:21.134Z,21.03
2023-07-16T20:03:47.867Z,20.99
2023-07-16T20:06:14.637Z,20.89
2023-07-16T20:08:42.160Z,20.83
2023-07-16T20:11:08.772Z,20.71
2023-07-16T20:13:35.456Z,20.71
2023-07-16T20:16:02.160Z,20.70
2023-07-16T20:18:28.789Z,20.68
2023-07-16T20:20:57.259Z,20.67
2023-07-16T20:23:26.432Z,20.63
2023-07-16T20:25:53.441Z,20.59
2023-07-16T20:28:20.633Z,20.56
2023-07-16T20:30:47.796Z,20.51
2023-07-16T20:33:14.611Z,20.47
2023-07-16T20:35:41.228Z,20.44
2023-07-16T20:38:08.406Z,20.39
2023-07-16T20:40:35.669Z,20.37
2023-07-16T20:43:02.758Z,20.35
2023-07-16T20:45:31.241Z,20.32
2023-07-16T20:48:00.717Z,20.28
2023-07-16T20:50:28.849Z,20.24
2023-07-16T20:52:58.143Z,20.21
2023-07-16T20:55:25.981Z,20.20
2023-07-16T20:57:54.504Z,20.16
2023-07-16T21:00:25.477Z,20.14
2023-07-16T21:02:54.758Z,20.08
2023-07-16T21:05:23.901Z,20.04
2023-07-16T21:07:50.637Z,19.99
2023-07-16T21:10:19.496Z,19.96
2023-07-16T21:12:46.185Z,19.93
2023-07-16T21:15:14.074Z,19.88
2023-07-16T21:17:40.843Z,19.86
2023-07-16T21:20:10.532Z,19.84
2023-07-16T21:22:39.087Z,19.82
2023-07-16T21:25:06.904Z,19.81
2023-07-16T21:27:41.307Z,19.78
2023-07-16T21:30:08.416Z,19.78
2023-07-16T21:32:35.079Z,19.73
2023-07-16T21:35:01.695Z,19.71
2023-07-16T21:37:29.391Z,19.69
2023-07-16T21:39:56.989Z,19.68
2023-07-16T21:42:25.164Z,19.72
2023-07-16T21:44:51.793Z,19.71
2023-07-16T21:47:18.389Z,19.70
2023-07-16T21:49:46.251Z,19.68
2023-07-16T21:52:12.785Z,19.66
2023-07-16T21:54:39.643Z,19.69
2023-07-16T21:57:06.733Z,19.71
2023-07-16T21:59:33.446Z,19.75
2023-07-16T22:02:00.092Z,19.77
2023-07-16T22:04:27.175Z,19.74
2023-07-16T22:06:53.869Z,19.72
2023-07-16T22:09:20.819Z,19.72
2023-07-16T22:11:47.409Z,19.72
2023-07-16T22:14:13.999Z,19.72
2023-07-16T22:16:40.934Z,19.68
2023-07-16T22:19:21.193Z,19.66
2023-07-16T22:21:55.229Z,19.66
2023-07-16T22:24:22.386Z,19.67
2023-07-16T22:26:48.982Z,19.66
2023-07-16T22:29:15.635Z,19.61
2023-07-16T22:31:42.289Z,19.58
2023-07-16T22:34:08.981Z,19.58
2023-07-16T22:36:40.173Z,19.56
2023-07-16T22:39:06.738Z,19.55
2023-07-16T22:41:33.344Z,19.56
2023-07-16T22:43:59.942Z,19.57
2023-07-16T22:46:26.626Z,19.58
2023-07-16T22:48:54.346Z,19.59
2023-07-16T22:51:21.061Z,19.56
2023-07-16T22:53:47.767Z,19.52
2023-07-16T22:56:14.408Z,19.48
2023-07-16T22:58:41.014Z,19.47
2023-07-16T23:01:09.554Z,19.50
2023-07-16T23:03:37.070Z,19.50
2023-07-16T23:06:04.467Z,19.50
2023-07-16T23:08:31.062Z,19.52
2023-07-16T23:10:57.758Z,19.51
2023-07-16T23:13:24.348Z,19.47
2023-07-16T23:15:51.001Z,19.44
2023-07-16T23:18:17.669Z,19.41
2023-07-16T23:20:44.560Z,19.43
2023-07-16T23:23:11.229Z,19.41
2023-07-16T23:25:38.360Z,19.41
2023-07-16T23:28:07.628Z,19.39
2023-07-16T23:30:35.218Z,19.38
2023-07-16T23:33:04.489Z,19.36
2023-07-16T23:35:31.871Z,19.33
2023-07-16T23:37:58.619Z,19.32
2023-07-16T23:40:25.345Z,19.27
2023-07-16T23:42:51.958Z,19.28
2023-07-16T23:45:19.681Z,19.29
2023-07-16T23:47:46.452Z,19.24
2023-07-16T23:50:13.095Z,19.21
2023-07-16T23:52:39.710Z,19.22
2023-07-16T23:55:07.423Z,19.25
2023-07-16T23:57:37.487Z,19.28
